createdAt,value
2023-01-29T00:01:55.410Z,-2.153931
2023-01-29T00:05:27.692Z,-2.184143
2023-01-29T00:08:45.821Z,-2.214355
2023-01-29T00:12:11.151Z,-2.335205
2023-01-29T00:15:36.303Z,-2.294922
2023-01-29T00:19:01.578Z,-2.27478
2023-01-29T00:22:26.842Z,-2.234497
2023-01-29T00:25:52.101Z,-2.214355
2023-01-29T00:29:17.361Z,-2.304993
2023-01-29T00:32:42.570Z,-2.304993
2023-01-29T00:36:07.836Z,-2.27478
2023-01-29T00:39:46.126Z,-2.214355
2023-01-29T00:42:58.316Z,-2.304993
2023-01-29T00:46:23.624Z,-2.345276
2023-01-29T00:49:48.822Z,-2.415771
2023-01-29T00:53:14.084Z,-2.365417
2023-01-29T00:56:39.324Z,-2.315063
2023-01-29T01:00:04.563Z,-2.39563
2023-01-29T01:03:29.865Z,-2.456055
2023-01-29T01:06:55.053Z,-2.52655
2023-01-29T01:10:20.453Z,-2.627258
2023-01-29T01:13:45.704Z,-2.546692
2023-01-29T01:17:10.939Z,-2.486267
2023-01-29T01:20:36.366Z,-2.486267
2023-01-29T01:24:01.463Z,-2.627258
2023-01-29T01:27:26.721Z,-2.707825
2023-01-29T01:30:52.071Z,-2.738037
2023-01-29T01:34:17.275Z,-2.697754
2023-01-29T01:37:42.592Z,-2.818604
2023-01-29T01:41:07.810Z,-2.838745
2023-01-29T01:44:33.076Z,-2.858887
2023-01-29T01:47:58.312Z,-2.818604
2023-01-29T01:51:23.563Z,-2.909241
2023-01-29T01:54:48.844Z,-2.879028
2023-01-29T01:58:14.073Z,-2.77832
2023-01-29T02:01:39.333Z,-2.788391
2023-01-29T02:05:04.592Z,-2.677612
2023-01-29T02:08:29.915Z,-2.607117
2023-01-29T02:11:55.187Z,-2.637329
2023-01-29T02:15:20.413Z,-2.637329
2023-01-29T02:18:45.677Z,-2.77832
2023-01-29T02:22:10.947Z,-2.838745
2023-01-29T02:25:36.249Z,-3.100586
2023-01-29T02:29:01.555Z,-3.27179
2023-01-29T02:32:26.750Z,-3.211365
2023-01-29T02:35:52.009Z,-3.312073
2023-01-29T02:39:17.285Z,-3.362427
2023-01-29T02:42:42.513Z,-3.362427
2023-01-29T02:46:07.832Z,-3.422852
2023-01-29T02:49:33.017Z,-3.412781
2023-01-29T02:52:58.298Z,-3.412781
2023-01-29T02:56:23.545Z,-3.422852
2023-01-29T02:59:48.811Z,-3.463135
2023-01-29T03:03:14.087Z,-3.604126
2023-01-29T03:06:39.309Z,-3.674622
2023-01-29T03:10:04.597Z,-3.674622
2023-01-29T03:13:29.851Z,-3.674622
2023-01-29T03:16:55.123Z,-3.714905
2023-01-29T03:20:20.652Z,-3.664551
2023-01-29T03:23:45.894Z,-3.573914
2023-01-29T03:27:11.141Z,-3.604126
2023-01-29T03:30:36.360Z,-3.674622
2023-01-29T03:34:01.621Z,-3.805542
2023-01-29T03:37:26.896Z,-3.855896
2023-01-29T03:40:52.122Z,-3.855896
2023-01-29T03:44:17.396Z,-3.815613
2023-01-29T03:47:42.607Z,-3.845825
2023-01-29T03:51:07.861Z,-3.825684
2023-01-29T03:54:33.125Z,-3.926392
2023-01-29T03:57:58.377Z,-3.996887
2023-01-29T04:01:23.623Z,-4.0271
2023-01-29T04:04:48.902Z,-4.107666
2023-01-29T04:08:14.155Z,-4.147949
2023-01-29T04:11:39.432Z,-4.178162
2023-01-29T04:15:04.668Z,-4.299011
2023-01-29T04:18:29.930Z,-4.299011
2023-01-29T04:21:55.238Z,-4.319153
2023-01-29T04:25:20.505Z,-4.319153
2023-01-29T04:28:45.753Z,-4.349365
2023-01-29T04:32:11.041Z,-4.349365
2023-01-29T04:35:36.362Z,-4.419861
2023-01-29T04:39:01.588Z,-4.54071
2023-01-29T04:42:26.851Z,-4.601135
2023-01-29T04:45:52.084Z,-4.601135
2023-01-29T04:49:17.371Z,-4.79248
2023-01-29T04:52:42.641Z,-4.772339
2023-01-29T04:56:07.894Z,-4.711914
2023-01-29T04:59:33.172Z,-4.903259
2023-01-29T05:02:58.521Z,-5.064392
2023-01-29T05:06:23.679Z,-4.903259
2023-01-29T05:09:48.929Z,-4.923401
2023-01-29T05:13:14.192Z,-5.04425
2023-01-29T05:16:39.457Z,-4.963684
2023-01-29T05:20:04.718Z,-4.893188
2023-01-29T05:23:30.044Z,-4.873047
2023-01-29T05:26:55.314Z,-4.78241
2023-01-29T05:30:20.604Z,-4.79248
2023-01-29T05:33:45.870Z,-4.953613
2023-01-29T05:37:11.114Z,-4.973755
2023-01-29T05:40:36.341Z,-4.933472
2023-01-29T05:44:01.642Z,-4.903259
2023-01-29T05:47:26.919Z,-4.862976
2023-01-29T05:50:52.162Z,-4.852905
2023-01-29T05:54:17.459Z,-4.752197
2023-01-29T05:57:42.717Z,-4.742126
2023-01-29T06:01:08.017Z,-4.772339
2023-01-29T06:04:33.275Z,-4.812622
2023-01-29T06:07:58.529Z,-4.893188
2023-01-29T06:11:23.796Z,-4.893188
2023-01-29T06:14:49.066Z,-5.003967
2023-01-29T06:18:14.322Z,-5.003967
2023-01-29T06:21:39.680Z,-4.953613
2023-01-29T06:25:04.969Z,-4.873047
2023-01-29T06:28:30.238Z,-4.812622
2023-01-29T06:31:55.654Z,-4.862976
2023-01-29T06:35:20.790Z,-4.812622
2023-01-29T06:38:46.086Z,-4.873047
2023-01-29T06:42:11.377Z,-4.862976
2023-01-29T06:45:36.659Z,-4.953613
2023-01-29T06:49:01.940Z,-4.812622
2023-01-29T06:52:27.249Z,-4.752197
2023-01-29T06:55:52.519Z,-4.671631
2023-01-29T06:59:17.865Z,-4.631348
2023-01-29T07:02:43.157Z,-4.651489
2023-01-29T07:06:08.575Z,-4.601135
2023-01-29T07:09:34.084Z,-4.671631
2023-01-29T07:12:59.355Z,-4.681702
2023-01-29T07:16:24.721Z,-4.812622
2023-01-29T07:19:49.970Z,-4.862976
2023-01-29T07:23:15.236Z,-4.78241
2023-01-29T07:26:40.489Z,-4.752197
2023-01-29T07:30:05.760Z,-4.721985
2023-01-29T07:33:31.047Z,-4.752197
2023-01-29T07:36:56.370Z,-4.691772
2023-01-29T07:40:21.657Z,-4.691772
2023-01-29T07:43:46.909Z,-4.681702
2023-01-29T07:47:12.192Z,-4.812622
2023-01-29T07:50:37.508Z,-4.79248
2023-01-29T07:54:02.807Z,-4.852905
2023-01-29T07:57:28.073Z,-4.78241
2023-01-29T08:00:53.381Z,-4.671631
2023-01-29T08:04:18.647Z,-4.53064
2023-01-29T08:07:49.197Z,-4.601135
2023-01-29T08:11:09.256Z,-4.500427
2023-01-29T08:14:34.549Z,-4.500427
2023-01-29T08:17:59.903Z,-4.329224
2023-01-29T08:21:26.209Z,-4.28894
2023-01-29T08:24:53.917Z,-4.147949
2023-01-29T08:28:16.796Z,-4.168091
2023-01-29T08:31:42.084Z,-4.107666
2023-01-29T08:35:07.435Z,-3.996887
2023-01-29T08:38:32.723Z,-3.956604
2023-01-29T08:41:57.997Z,-3.90625
2023-01-29T08:45:23.308Z,-3.77533
2023-01-29T08:48:48.656Z,-3.694763
2023-01-29T08:52:13.909Z,-3.53363
2023-01-29T08:55:39.220Z,-3.493347
2023-01-29T08:59:04.490Z,-3.483276
2023-01-29T09:02:29.823Z,-3.453064
2023-01-29T09:05:55.042Z,-3.332214
2023-01-29T09:09:20.339Z,-3.090515
2023-01-29T09:12:45.628Z,-2.879028
2023-01-29T09:16:10.907Z,-2.879028
2023-01-29T09:19:36.200Z,-2.919312
2023-01-29T09:23:01.454Z,-2.919312
2023-01-29T09:26:26.779Z,-2.838745
2023-01-29T09:29:52.013Z,-2.808533
2023-01-29T09:33:17.331Z,-2.607117
2023-01-29T09:36:43.188Z,-2.546692
2023-01-29T09:40:08.446Z,-2.627258
2023-01-29T09:43:33.783Z,-2.516479
2023-01-29T09:46:59.113Z,-2.516479
2023-01-29T09:50:24.435Z,-2.486267
2023-01-29T09:53:49.657Z,-2.456055
2023-01-29T09:57:14.967Z,-2.445984
2023-01-29T10:00:40.247Z,-2.476196
2023-01-29T10:04:05.572Z,-2.425842
2023-01-29T10:07:30.877Z,-2.365417
2023-01-29T10:10:56.148Z,-2.204285
2023-01-29T10:14:21.507Z,-1.972656
2023-01-29T10:17:47.814Z,-1.741028
2023-01-29T10:21:12.143Z,-1.620178
2023-01-29T10:24:37.401Z,-1.479187
2023-01-29T10:28:02.668Z,-1.378479
2023-01-29T10:31:28.126Z,-1.428833
2023-01-29T10:34:53.279Z,-1.408691
2023-01-29T10:38:18.636Z,-1.479187
2023-01-29T10:41:43.912Z,-1.408691
2023-01-29T10:45:09.185Z,-1.51947
2023-01-29T10:48:34.490Z,-1.620178
2023-01-29T10:51:59.777Z,-1.620178
2023-01-29T10:55:25.048Z,-1.549683
2023-01-29T10:58:50.321Z,-1.589966
2023-01-29T11:02:15.580Z,-1.479187
2023-01-29T11:05:40.831Z,-1.408691
2023-01-29T11:09:06.164Z,-1.448975
2023-01-29T11:12:31.430Z,-1.489258
2023-01-29T11:15:56.773Z,-1.479187
2023-01-29T11:19:22.594Z,-1.509399
2023-01-29T11:22:47.836Z,-1.509399
2023-01-29T11:26:13.231Z,-1.448975
2023-01-29T11:29:38.542Z,-1.277771
2023-01-29T11:33:03.848Z,-1.096497
2023-01-29T11:36:29.785Z,-1.066284
2023-01-29T11:39:55.087Z,-1.036072
2023-01-29T11:43:20.409Z,-1.01593
2023-01-29T11:46:46.448Z,-0.965576
2023-01-29T11:50:11.709Z,-0.905151
2023-01-29T11:53:39.011Z,-0.945435
2023-01-29T11:57:04.307Z,-1.116638
2023-01-29T12:00:29.589Z,-1.126709
2023-01-29T12:03:55.026Z,-1.197205
2023-01-29T12:07:21.207Z,-1.116638
2023-01-29T12:10:48.397Z,-1.197205
2023-01-29T12:14:13.712Z,-1.348267
2023-01-29T12:17:39.010Z,-1.459045
2023-01-29T12:21:04.367Z,-1.489258
2023-01-29T12:24:30.925Z,-1.348267
2023-01-29T12:27:58.550Z,-1.217346
2023-01-29T12:31:23.829Z,-1.297913
2023-01-29T12:34:58.624Z,-1.2677
2023-01-29T12:38:23.961Z,-1.116638
2023-01-29T12:41:52.640Z,-1.086426
2023-01-29T12:45:18.047Z,-1.046143
2023-01-29T12:48:43.279Z,-1.005859
2023-01-29T12:52:08.546Z,-0.945435
2023-01-29T12:55:33.807Z,-0.864868
2023-01-29T12:58:59.054Z,-0.824585
2023-01-29T13:02:24.305Z,-0.824585
2023-01-29T13:05:49.546Z,-0.945435
2023-01-29T13:09:14.820Z,-1.166992
2023-01-29T13:12:40.100Z,-1.227417
2023-01-29T13:16:05.444Z,-1.247559
2023-01-29T13:19:30.644Z,-1.197205
2023-01-29T13:22:55.900Z,-1.227417
2023-01-29T13:26:21.208Z,-1.116638
2023-01-29T13:29:46.402Z,-1.217346
2023-01-29T13:33:11.793Z,-1.096497
2023-01-29T13:36:36.947Z,-1.086426
2023-01-29T13:40:02.218Z,-1.116638
2023-01-29T13:43:27.476Z,-1.066284
2023-01-29T13:46:52.793Z,-1.126709
2023-01-29T13:50:18.079Z,-1.217346
2023-01-29T13:53:43.395Z,-1.328125
2023-01-29T13:57:08.684Z,-1.408691
2023-01-29T14:00:34.011Z,-1.307983
2023-01-29T14:04:06.562Z,-1.338196
2023-01-29T14:07:24.558Z,-1.338196
2023-01-29T14:10:49.848Z,-1.398621
2023-01-29T14:14:15.098Z,-1.338196
2023-01-29T14:17:40.436Z,-1.297913
2023-01-29T14:21:05.757Z,-1.297913
2023-01-29T14:24:31.042Z,-1.2677
2023-01-29T14:27:56.326Z,-1.448975
2023-01-29T14:31:21.680Z,-1.579895
2023-01-29T15:05:51.818Z,-2.033081
2023-01-29T15:09:17.145Z,-2.002869
2023-01-29T15:12:42.446Z,-2.02301
2023-01-29T15:16:07.785Z,-2.033081
2023-01-29T15:19:32.967Z,-2.083435
2023-01-29T15:22:58.235Z,-2.164001
2023-01-29T15:26:25.328Z,-2.234497
2023-01-29T15:29:48.792Z,-2.304993
2023-01-29T15:33:14.095Z,-2.214355
2023-01-29T15:36:39.321Z,-2.164001
2023-01-29T15:40:04.626Z,-2.164001
2023-01-29T15:43:29.870Z,-2.123718
2023-01-29T15:46:55.128Z,-1.972656
2023-01-29T15:50:20.394Z,-2.02301
2023-01-29T15:53:59.119Z,-2.053223
2023-01-29T15:57:35.325Z,-2.063293
2023-01-29T16:01:00.510Z,-2.083435
2023-01-29T16:04:25.813Z,-2.234497
2023-01-29T16:07:51.230Z,-2.365417
2023-01-29T16:11:16.457Z,-2.39563
2023-01-29T16:14:41.732Z,-2.445984
2023-01-29T16:18:07.501Z,-2.576904
2023-01-29T16:21:32.816Z,-2.667542
2023-01-29T16:24:58.158Z,-2.697754
2023-01-29T16:28:24.797Z,-2.76825
2023-01-29T16:31:50.164Z,-2.657471
2023-01-29T16:35:15.576Z,-2.677612
2023-01-29T16:38:40.833Z,-2.657471
2023-01-29T16:42:06.095Z,-2.637329
2023-01-29T16:45:31.330Z,-2.627258
2023-01-29T16:48:56.606Z,-2.546692
2023-01-29T16:52:21.879Z,-2.546692
2023-01-29T16:55:47.176Z,-2.496338
2023-01-29T16:59:12.469Z,-2.637329
2023-01-29T17:02:37.727Z,-2.597046
2023-01-29T17:06:03.023Z,-2.727966
2023-01-29T17:09:28.276Z,-2.788391
2023-01-29T17:12:53.545Z,-2.727966
2023-01-29T17:16:18.825Z,-2.697754
2023-01-29T17:19:44.043Z,-2.657471
2023-01-29T17:23:09.314Z,-2.607117
2023-01-29T17:26:34.652Z,-2.808533
2023-01-29T17:29:59.868Z,-2.808533
2023-01-29T17:33:25.210Z,-2.77832
2023-01-29T17:36:50.511Z,-2.76825
2023-01-29T17:40:15.813Z,-2.939453
2023-01-29T17:43:41.179Z,-2.858887
2023-01-29T17:47:06.601Z,-2.909241
2023-01-29T17:50:31.955Z,-2.818604
2023-01-29T17:53:57.336Z,-2.858887
2023-01-29T17:57:22.641Z,-2.738037
2023-01-29T18:00:47.958Z,-2.76825
2023-01-29T18:04:13.459Z,-2.657471
2023-01-29T18:07:38.719Z,-2.677612
2023-01-29T18:11:04.042Z,-2.738037
2023-01-29T18:14:29.362Z,-2.697754
2023-01-29T18:17:54.662Z,-2.697754
2023-01-29T18:21:19.986Z,-2.697754
2023-01-29T18:24:45.326Z,-2.677612
2023-01-29T18:28:10.633Z,-2.707825
2023-01-29T18:31:35.950Z,-2.707825
2023-01-29T18:35:01.334Z,-2.707825
2023-01-29T18:38:26.687Z,-2.697754
2023-01-29T18:41:51.959Z,-2.727966
2023-01-29T18:45:17.519Z,-2.738037
2023-01-29T18:48:43.066Z,-2.77832
2023-01-29T18:52:07.953Z,-2.808533
2023-01-29T18:55:33.718Z,-2.858887
2023-01-29T18:58:58.703Z,-2.838745
2023-01-29T19:02:24.034Z,-2.76825
2023-01-29T19:05:49.385Z,-2.788391
2023-01-29T19:09:14.667Z,-2.889099
2023-01-29T19:12:39.962Z,-2.818604
2023-01-29T19:16:05.268Z,-2.848816
2023-01-29T19:19:30.570Z,-2.858887
2023-01-29T19:22:55.839Z,-2.909241
2023-01-29T19:26:21.137Z,-2.939453
2023-01-29T19:29:46.437Z,-2.909241
2023-01-29T19:33:11.741Z,-2.889099
2023-01-29T19:36:36.979Z,-2.838745
2023-01-29T19:40:02.277Z,-2.727966
2023-01-29T19:43:27.659Z,-2.77832
2023-01-29T19:46:52.915Z,-2.677612
2023-01-29T19:50:18.222Z,-2.858887
2023-01-29T19:53:43.547Z,-2.909241
2023-01-29T19:57:08.819Z,-2.858887
2023-01-29T20:00:34.169Z,-2.838745
2023-01-29T20:03:59.372Z,-2.969666
2023-01-29T20:07:24.760Z,-2.879028
2023-01-29T20:10:50.055Z,-2.909241
2023-01-29T20:14:15.321Z,-2.788391
2023-01-29T20:17:40.608Z,-2.77832
2023-01-29T20:21:05.876Z,-2.818604
2023-01-29T20:24:31.186Z,-2.858887
2023-01-29T20:27:56.435Z,-2.818604
2023-01-29T20:31:21.742Z,-2.818604
2023-01-29T20:34:47.015Z,-2.879028
2023-01-29T20:38:12.360Z,-2.879028
2023-01-29T20:41:37.643Z,-2.848816
2023-01-29T20:45:02.969Z,-2.788391
2023-01-29T20:48:28.247Z,-2.838745
2023-01-29T20:51:53.636Z,-2.939453
2023-01-29T20:55:18.970Z,-2.909241
2023-01-29T20:58:44.403Z,-2.939453
2023-01-29T21:02:09.701Z,-2.858887
2023-01-29T21:05:34.915Z,-2.879028
2023-01-29T21:09:00.178Z,-2.808533
2023-01-29T21:12:25.440Z,-2.738037
2023-01-29T21:15:50.731Z,-2.76825
2023-01-29T21:19:16.013Z,-2.727966
2023-01-29T21:22:41.296Z,-2.76825
2023-01-29T21:26:06.576Z,-2.818604
2023-01-29T21:29:31.838Z,-2.76825
2023-01-29T21:32:57.080Z,-2.76825
2023-01-29T21:36:22.359Z,-2.788391
2023-01-29T21:39:47.626Z,-2.879028
2023-01-29T21:43:12.956Z,-2.959595
2023-01-29T21:46:38.254Z,-2.889099
2023-01-29T21:50:03.506Z,-3.03009
2023-01-29T21:53:28.782Z,-3.140869
2023-01-29T21:56:54.059Z,-3.251648
2023-01-29T22:00:19.579Z,-3.231506
2023-01-29T22:03:46.804Z,-3.15094
2023-01-29T22:07:09.876Z,-3.171082
2023-01-29T22:10:35.176Z,-3.251648
2023-01-29T22:14:00.432Z,-3.090515
2023-01-29T22:17:25.779Z,-3.02002
2023-01-29T22:20:51.029Z,-2.969666
2023-01-29T22:24:16.282Z,-2.909241
2023-01-29T22:27:41.535Z,-3.03009
2023-01-29T22:31:06.805Z,-3.03009
2023-01-29T22:34:32.079Z,-3.090515
2023-01-29T22:37:57.317Z,-3.15094
2023-01-29T22:41:22.588Z,-3.140869
2023-01-29T22:44:47.921Z,-3.201294
2023-01-29T22:48:13.216Z,-3.201294
2023-01-29T22:51:38.521Z,-3.201294
2023-01-29T22:55:03.820Z,-3.050232
2023-01-29T22:58:29.062Z,-3.070374
2023-01-29T23:01:54.363Z,-3.050232
2023-01-29T23:05:19.685Z,-3.070374
2023-01-29T23:08:44.936Z,-3.060303
2023-01-29T23:12:10.239Z,-2.969666
2023-01-29T23:15:35.514Z,-2.879028
2023-01-29T23:19:00.855Z,-2.879028
2023-01-29T23:22:26.106Z,-2.889099
2023-01-29T23:25:51.425Z,-2.858887
2023-01-29T23:29:16.712Z,-2.848816
2023-01-29T23:32:41.992Z,-2.738037
2023-01-29T23:36:07.276Z,-2.738037
2023-01-29T23:39:32.570Z,-2.76825
2023-01-29T23:42:57.838Z,-2.607117
2023-01-29T23:46:23.134Z,-2.667542
2023-01-29T23:49:48.397Z,-2.607117
2023-01-29T23:53:13.677Z,-2.707825
2023-01-29T23:56:38.998Z,-2.707825
